Terminal Aerodrome Forecast
Issued by NWS Cheyenne, WY

Home | Current Version | Previous Version | Text Only | Print | Product List | Glossary On
Versions: 1 2 3 4 5 6 7 8 9 10 11 12 13 14 15 16 17 18 19 20 21 22 23 24 25
000
FTUS45 KCYS 170822 AAC
TAFCYS
TAF AMD
KCYS 170822Z 1708/1806 12005KT 1SM -SN BR OVC003
      TEMPO 1708/1712 08007KT 1/4SM -FZDZ FZFG VV001
     FM171200 22006KT 1SM BR BKN007 OVC012
     FM171700 26010KT 5SM BR SCT004 BKN020
     FM171900 28010G20KT P6SM SCT020 BKN250=

USA.gov is the U.S. government's official web portal to all federal, state and local government web resources and services.